createdAt,value
2019-05-05T00:01:39.488Z,8.00
2019-05-05T00:04:36.750Z,9.43
2019-05-05T00:07:05.960Z,11.28
2019-05-05T00:09:34.913Z,14.40
2019-05-05T00:12:21.828Z,10.95
2019-05-05T00:15:02.302Z,7.00
2019-05-05T00:17:31.715Z,8.30
2019-05-05T00:20:00.378Z,11.25
2019-05-05T00:22:29.061Z,8.20
2019-05-05T00:24:57.725Z,8.68
2019-05-05T00:27:26.483Z,9.78
2019-05-05T00:29:55.181Z,13.83
2019-05-05T00:32:24.535Z,13.25
2019-05-05T00:34:55.163Z,9.55
2019-05-05T00:37:25.675Z,10.85
2019-05-05T00:39:54.636Z,10.85
2019-05-05T00:42:24.774Z,9.10
2019-05-05T00:44:54.898Z,8.93
2019-05-05T00:47:54.843Z,17.37
2019-05-05T00:50:25.259Z,15.35
2019-05-05T00:52:55.098Z,12.18
2019-05-05T00:55:24.467Z,17.90
2019-05-05T00:57:54.848Z,12.50
2019-05-05T01:00:39.202Z,13.50
2019-05-05T01:03:08.032Z,16.82
2019-05-05T01:05:44.900Z,14.28
2019-05-05T01:08:17.209Z,13.80
2019-05-05T01:10:45.884Z,11.50
2019-05-05T01:13:15.220Z,17.70
2019-05-05T01:15:44.843Z,14.93
2019-05-05T01:18:15.254Z,17.32
2019-05-05T01:20:44.906Z,18.80
2019-05-05T01:23:15.012Z,16.12
2019-05-05T01:25:46.119Z,16.55
2019-05-05T01:28:14.529Z,16.00
2019-05-05T01:30:45.429Z,18.30
2019-05-05T01:33:20.446Z,12.30
2019-05-05T01:35:49.123Z,15.38
2019-05-05T01:38:24.860Z,16.75
2019-05-05T01:41:05.824Z,17.20
2019-05-05T01:43:34.729Z,13.28
2019-05-05T01:46:05.027Z,14.98
2019-05-05T01:48:35.096Z,17.40
2019-05-05T01:51:05.011Z,15.63
2019-05-05T01:53:34.969Z,17.57
2019-05-05T01:56:04.853Z,16.87
2019-05-05T01:58:34.921Z,16.37
2019-05-05T02:01:04.990Z,18.95
2019-05-05T02:03:35.051Z,28.35
2019-05-05T02:06:05.269Z,28.32
2019-05-05T02:08:34.903Z,26.73
2019-05-05T02:11:05.169Z,21.95
2019-05-05T02:13:34.663Z,28.25
2019-05-05T02:16:04.596Z,21.17
2019-05-05T02:18:34.571Z,23.12
2019-05-05T02:21:06.158Z,20.85
2019-05-05T02:23:36.101Z,15.28
2019-05-05T02:26:05.985Z,24.92
2019-05-05T02:28:45.314Z,26.30
2019-05-05T02:31:25.519Z,18.65
2019-05-05T02:33:56.782Z,19.75
2019-05-05T02:36:25.784Z,25.68
2019-05-05T02:38:56.701Z,25.12
2019-05-05T02:41:25.651Z,25.50
2019-05-05T02:43:56.001Z,27.30
2019-05-05T02:46:44.755Z,24.80
2019-05-05T02:49:15.288Z,27.80
2019-05-05T02:51:45.287Z,29.35
2019-05-05T02:54:15.326Z,33.73
2019-05-05T02:56:46.826Z,31.17
2019-05-05T02:59:26.642Z,26.20
2019-05-05T03:02:09.129Z,27.80
2019-05-05T03:04:38.180Z,26.00
2019-05-05T03:07:09.243Z,26.35
2019-05-05T03:09:38.863Z,27.67
2019-05-05T03:12:11.100Z,28.30
2019-05-05T03:14:42.008Z,25.30
2019-05-05T03:17:14.298Z,32.70
2019-05-05T03:19:44.549Z,32.98
2019-05-05T03:22:14.358Z,28.45
2019-05-05T03:24:44.640Z,30.85
2019-05-05T03:27:14.447Z,30.82
2019-05-05T03:29:44.173Z,33.35
2019-05-05T03:32:16.024Z,33.75
2019-05-05T03:34:44.600Z,32.53
2019-05-05T03:37:14.646Z,37.13
2019-05-05T03:39:48.416Z,37.30
2019-05-05T03:42:33.850Z,28.35
2019-05-05T03:45:28.042Z,38.23
2019-05-05T03:47:57.412Z,32.48
2019-05-05T03:50:26.432Z,31.42
2019-05-05T03:52:55.386Z,30.92
2019-05-05T03:55:24.496Z,29.05
2019-05-05T03:57:53.849Z,32.03
2019-05-05T04:00:43.312Z,41.05
2019-05-05T04:03:12.098Z,33.40
2019-05-05T04:05:53.799Z,31.60
2019-05-05T04:08:23.482Z,31.17
2019-05-05T04:10:54.474Z,31.25
2019-05-05T04:13:24.293Z,37.70
2019-05-05T04:16:10.884Z,36.20
2019-05-05T04:18:48.679Z,28.65
2019-05-05T04:21:30.270Z,32.30
2019-05-05T04:23:47.760Z,36.03
2019-05-05T04:26:16.461Z,35.38
2019-05-05T04:28:45.124Z,36.05
2019-05-05T04:31:13.839Z,29.72
2019-05-05T04:33:44.460Z,28.70
2019-05-05T04:36:14.490Z,29.50
2019-05-05T04:38:43.951Z,32.13
2019-05-05T04:41:14.064Z,34.55
2019-05-05T04:43:44.202Z,31.23
2019-05-05T04:46:14.036Z,28.42
2019-05-05T04:48:48.815Z,30.95
2019-05-05T04:51:21.373Z,32.38
2019-05-05T04:54:27.282Z,26.42
2019-05-05T04:56:56.070Z,29.67
2019-05-05T04:59:24.814Z,28.65
2019-05-05T05:01:56.387Z,28.55
2019-05-05T05:04:48.624Z,27.62
2019-05-05T05:07:18.293Z,27.32
2019-05-05T05:09:46.965Z,32.08
2019-05-05T05:12:15.654Z,27.67
2019-05-05T05:14:44.314Z,23.05
2019-05-05T05:17:19.787Z,24.50
2019-05-05T05:19:48.671Z,24.63
2019-05-05T05:22:17.338Z,32.42
2019-05-05T05:24:46.020Z,27.02
2019-05-05T05:27:14.688Z,28.83
2019-05-05T05:29:43.793Z,22.32
2019-05-05T05:32:12.555Z,18.95
2019-05-05T05:34:41.221Z,19.77
2019-05-05T05:37:09.921Z,25.12
2019-05-05T05:39:47.560Z,16.45
2019-05-05T05:42:16.244Z,18.35
2019-05-05T05:44:53.562Z,17.15
2019-05-05T05:47:29.976Z,17.82
2019-05-05T05:50:17.683Z,19.27
2019-05-05T05:52:46.373Z,17.52
2019-05-05T05:55:15.086Z,17.32
2019-05-05T05:57:43.982Z,11.12
2019-05-05T06:00:14.515Z,13.72
2019-05-05T06:02:43.960Z,12.78
2019-05-05T06:05:14.782Z,13.22
2019-05-05T06:07:44.252Z,10.80
2019-05-05T06:10:23.697Z,9.10
2019-05-05T06:12:45.021Z,10.43
2019-05-05T06:15:14.336Z,11.60
2019-05-05T06:17:43.496Z,11.08
2019-05-05T06:20:14.405Z,12.20
2019-05-05T06:22:44.664Z,8.75
2019-05-05T06:25:15.969Z,9.35
2019-05-05T06:27:44.564Z,9.70
2019-05-05T06:30:13.888Z,14.13
2019-05-05T06:32:43.696Z,10.38
2019-05-05T06:35:13.853Z,13.88
2019-05-05T06:37:54.263Z,13.18
2019-05-05T06:40:31.101Z,12.43
2019-05-05T06:43:13.967Z,9.33
2019-05-05T06:45:47.648Z,12.78
2019-05-05T06:48:16.332Z,14.10
2019-05-05T06:50:44.989Z,11.55
2019-05-05T06:53:13.713Z,10.95
2019-05-05T06:55:44.313Z,12.60
2019-05-05T06:58:13.651Z,9.75
2019-05-05T07:00:44.089Z,8.88
2019-05-05T07:03:13.930Z,8.50
2019-05-05T07:05:43.688Z,8.73
2019-05-05T07:08:13.844Z,11.85
2019-05-05T07:10:44.437Z,10.68
2019-05-05T07:13:14.030Z,11.63
2019-05-05T07:15:43.759Z,11.08
2019-05-05T07:18:14.242Z,13.90
2019-05-05T07:20:44.078Z,8.38
2019-05-05T07:23:14.465Z,9.33
2019-05-05T07:25:45.859Z,9.10
2019-05-05T07:28:14.677Z,8.55
2019-05-05T07:30:44.230Z,7.95
2019-05-05T07:33:14.897Z,10.95
2019-05-05T07:35:56.763Z,9.15
2019-05-05T07:38:21.624Z,11.60
2019-05-05T07:40:50.283Z,8.35
2019-05-05T07:43:18.972Z,6.50
2019-05-05T07:45:47.632Z,9.85
2019-05-05T07:48:16.292Z,7.35
2019-05-05T07:50:58.150Z,7.10
2019-05-05T07:53:17.848Z,8.70
2019-05-05T07:55:45.783Z,6.90
2019-05-05T07:58:14.433Z,7.78
2019-05-05T08:00:43.776Z,8.35
2019-05-05T08:03:14.382Z,9.70
2019-05-05T08:05:44.198Z,7.17
2019-05-05T08:08:13.930Z,9.55
2019-05-05T08:10:43.762Z,11.68
2019-05-05T08:13:14.077Z,8.38
2019-05-05T08:15:56.824Z,7.00
2019-05-05T08:18:27.793Z,11.12
2019-05-05T08:20:58.958Z,13.85
2019-05-05T08:23:39.760Z,9.45
2019-05-05T08:26:14.288Z,9.15
2019-05-05T08:28:56.450Z,10.08
2019-05-05T08:31:44.337Z,7.55
2019-05-05T08:34:14.271Z,5.70
2019-05-05T08:36:44.648Z,8.45
2019-05-05T08:39:14.252Z,10.18
2019-05-05T08:41:45.336Z,5.95
2019-05-05T08:44:14.256Z,9.45
2019-05-05T08:46:44.594Z,5.65
2019-05-05T08:49:13.778Z,3.40
2019-05-05T08:51:44.275Z,7.55
2019-05-05T08:54:14.342Z,5.40
2019-05-05T08:56:44.754Z,6.95
2019-05-05T08:59:14.272Z,5.20
2019-05-05T09:01:44.868Z,7.28
2019-05-05T09:04:14.261Z,2.35
2019-05-05T09:06:43.712Z,4.47
2019-05-05T09:09:14.423Z,5.50
2019-05-05T09:11:43.774Z,3.60
2019-05-05T09:14:14.837Z,4.12
2019-05-05T09:16:44.787Z,6.67
2019-05-05T09:19:17.440Z,3.02
2019-05-05T09:21:46.184Z,4.20
2019-05-05T09:24:34.069Z,4.10
2019-05-05T09:27:20.997Z,3.10
2019-05-05T09:29:49.700Z,6.22
2019-05-05T09:32:18.374Z,3.22
2019-05-05T09:34:47.170Z,8.35
2019-05-05T09:37:15.830Z,4.78
2019-05-05T09:39:44.569Z,4.22
2019-05-05T09:42:14.476Z,7.45
2019-05-05T09:44:43.892Z,4.85
2019-05-05T09:47:13.685Z,3.27
2019-05-05T09:49:44.565Z,4.75
2019-05-05T09:52:13.950Z,5.67
2019-05-05T09:54:43.893Z,6.45
2019-05-05T09:57:14.554Z,4.08
2019-05-05T09:59:44.125Z,6.80
2019-05-05T10:02:13.102Z,4.30
2019-05-05T10:04:43.912Z,8.65
2019-05-05T10:07:13.707Z,8.40
2019-05-05T10:09:43.806Z,8.33
2019-05-05T10:12:12.652Z,7.58
2019-05-05T10:14:41.300Z,8.28
2019-05-05T10:17:09.987Z,6.22
2019-05-05T10:19:38.670Z,9.20
2019-05-05T10:22:07.374Z,9.45
2019-05-05T10:24:44.218Z,6.80
2019-05-05T10:27:12.456Z,10.30
2019-05-05T10:29:41.116Z,8.55
2019-05-05T10:32:09.819Z,7.08
2019-05-05T10:34:38.555Z,6.92
2019-05-05T10:37:07.293Z,9.85
2019-05-05T10:39:40.267Z,8.33
2019-05-05T10:42:08.941Z,8.93
2019-05-05T10:44:37.601Z,8.00
2019-05-05T10:47:06.296Z,8.30
2019-05-05T10:49:34.981Z,7.25
2019-05-05T10:52:03.953Z,4.20
2019-05-05T10:54:43.284Z,5.17
2019-05-05T10:57:04.036Z,6.05
2019-05-05T10:59:34.345Z,7.42
2019-05-05T11:02:05.011Z,6.65
2019-05-05T11:04:34.031Z,10.90
2019-05-05T11:07:04.176Z,8.88
2019-05-05T11:09:33.878Z,9.85
2019-05-05T11:12:02.569Z,6.72
2019-05-05T11:14:31.224Z,6.72
2019-05-05T11:17:00.065Z,5.10
2019-05-05T11:19:28.798Z,7.47
2019-05-05T11:21:57.486Z,6.83
2019-05-05T11:24:26.228Z,9.80
2019-05-05T11:26:54.900Z,5.47
2019-05-05T11:29:24.166Z,6.97
2019-05-05T11:31:53.279Z,8.38
2019-05-05T11:34:25.709Z,6.67
2019-05-05T11:37:01.112Z,8.77
2019-05-05T11:39:29.777Z,5.60
2019-05-05T11:41:58.577Z,7.58
2019-05-05T11:44:27.245Z,6.97
2019-05-05T11:46:55.932Z,5.70
2019-05-05T11:49:24.708Z,11.83
2019-05-05T11:51:54.225Z,8.80
2019-05-05T11:54:24.558Z,13.60
2019-05-05T11:56:54.054Z,8.58
2019-05-05T11:59:23.817Z,12.35
2019-05-05T12:01:55.035Z,10.45
2019-05-05T12:04:23.999Z,8.38
2019-05-05T12:06:52.850Z,13.13
2019-05-05T12:09:27.575Z,10.63
2019-05-05T12:11:56.242Z,7.22
2019-05-05T12:14:27.449Z,7.60
2019-05-05T12:16:56.141Z,10.78
2019-05-05T12:19:24.803Z,10.55
2019-05-05T12:21:54.807Z,10.30
2019-05-05T12:24:27.773Z,8.60
2019-05-05T12:27:18.691Z,8.48
2019-05-05T12:29:54.588Z,10.75
2019-05-05T12:32:24.117Z,9.83
2019-05-05T12:34:53.799Z,10.15
2019-05-05T12:37:23.680Z,11.20
2019-05-05T12:39:54.419Z,11.00
2019-05-05T12:42:24.195Z,12.35
2019-05-05T12:45:00.985Z,7.78
2019-05-05T12:47:46.854Z,16.75
2019-05-05T12:50:15.874Z,8.45
2019-05-05T12:52:44.540Z,16.07
2019-05-05T12:55:14.324Z,10.78
2019-05-05T12:57:43.592Z,8.90
2019-05-05T13:00:14.609Z,10.40
2019-05-05T13:02:44.212Z,12.13
2019-05-05T13:05:14.503Z,11.95
2019-05-05T13:07:44.159Z,11.65
2019-05-05T13:10:15.916Z,11.03
2019-05-05T13:12:44.608Z,10.72
2019-05-05T13:15:14.353Z,11.35
2019-05-05T13:17:43.794Z,7.05
2019-05-05T13:20:34.812Z,12.95
2019-05-05T13:23:28.576Z,13.18
2019-05-05T13:28:34.301Z,8.40
2019-05-05T13:31:04.700Z,9.90
2019-05-05T13:33:34.543Z,17.20
2019-05-05T13:36:04.336Z,16.02
2019-05-05T13:38:34.305Z,13.05
2019-05-05T13:41:03.810Z,12.05
2019-05-05T13:43:34.230Z,12.70
2019-05-05T13:46:24.561Z,16.60
2019-05-05T13:48:53.959Z,9.70
2019-05-05T13:51:24.039Z,16.10
2019-05-05T13:53:53.960Z,16.40
2019-05-05T13:56:24.494Z,12.45
2019-05-05T13:58:53.307Z,12.30
2019-05-05T14:01:23.748Z,12.95
2019-05-05T14:03:54.177Z,14.45
2019-05-05T14:06:24.266Z,16.15
2019-05-05T14:08:54.087Z,14.45
2019-05-05T14:11:24.710Z,13.53
2019-05-05T14:13:53.434Z,21.07
2019-05-05T14:16:22.126Z,12.75
2019-05-05T14:18:50.792Z,13.85
2019-05-05T14:21:19.476Z,10.30
2019-05-05T14:24:00.607Z,9.85
2019-05-05T14:26:32.122Z,11.40
2019-05-05T14:28:59.665Z,11.93
2019-05-05T14:31:33.812Z,10.88
2019-05-05T14:34:04.519Z,6.65
2019-05-05T14:36:48.033Z,7.72
2019-05-05T14:41:45.387Z,7.95
2019-05-05T14:44:14.152Z,8.90
2019-05-05T14:46:44.571Z,10.40
2019-05-05T14:49:14.079Z,9.53
2019-05-05T14:51:44.671Z,9.53
2019-05-05T14:54:14.847Z,12.55
2019-05-05T14:56:44.157Z,9.90
2019-05-05T14:59:14.195Z,9.78
2019-05-05T15:01:44.747Z,7.58
2019-05-05T15:04:15.242Z,11.15
2019-05-05T15:07:05.896Z,11.90
2019-05-05T15:09:49.742Z,15.15
2019-05-05T15:12:23.794Z,18.25
2019-05-05T15:14:54.641Z,16.85
2019-05-05T15:17:24.648Z,13.90
2019-05-05T15:19:54.108Z,14.33
2019-05-05T15:22:24.036Z,15.72
2019-05-05T15:24:53.659Z,12.40
2019-05-05T15:27:24.243Z,24.35
2019-05-05T15:29:54.264Z,13.15
2019-05-05T15:32:24.028Z,11.63
2019-05-05T15:34:54.537Z,12.28
2019-05-05T15:37:23.795Z,15.00
2019-05-05T15:39:53.635Z,12.20
2019-05-05T15:42:22.624Z,10.65
2019-05-05T15:44:51.289Z,11.97
2019-05-05T15:47:19.947Z,9.38
2019-05-05T15:49:48.658Z,9.73
2019-05-05T15:52:20.075Z,10.48
2019-05-05T15:54:47.788Z,9.80
2019-05-05T15:57:18.064Z,6.72
2019-05-05T15:59:47.048Z,8.50
2019-05-05T16:02:15.711Z,12.07
2019-05-05T16:04:44.380Z,11.57
2019-05-05T16:07:13.825Z,8.05
2019-05-05T16:09:44.384Z,9.98
2019-05-05T16:12:14.380Z,9.95
2019-05-05T16:14:54.344Z,9.00
2019-05-05T16:17:43.868Z,6.22
2019-05-05T16:20:16.673Z,6.40
2019-05-05T16:23:16.500Z,8.13
2019-05-05T16:25:46.642Z,7.75
2019-05-05T16:28:15.588Z,8.25
2019-05-05T16:30:44.611Z,11.75
2019-05-05T16:33:13.800Z,12.47
2019-05-05T16:35:43.750Z,6.83
2019-05-05T16:38:14.745Z,8.65
2019-05-05T16:40:44.443Z,9.78
2019-05-05T16:43:14.062Z,6.45
2019-05-05T16:45:44.438Z,13.40
2019-05-05T16:48:13.225Z,11.35
2019-05-05T16:50:44.073Z,10.38
2019-05-05T16:53:31.389Z,10.60
2019-05-05T16:56:00.164Z,13.95
2019-05-05T16:58:28.821Z,9.90
2019-05-05T17:00:57.488Z,15.80
2019-05-05T17:03:26.181Z,12.35
2019-05-05T17:05:56.624Z,14.73
2019-05-05T17:08:25.227Z,15.08
2019-05-05T17:10:54.008Z,10.60
2019-05-05T17:13:44.048Z,17.12
2019-05-05T17:16:21.935Z,14.58
2019-05-05T17:19:13.922Z,16.32
2019-05-05T17:22:00.518Z,9.75
2019-05-05T17:24:29.224Z,11.97
2019-05-05T17:26:57.973Z,14.10
2019-05-05T17:29:26.979Z,14.23
2019-05-05T17:31:55.656Z,10.78
2019-05-05T17:34:24.807Z,11.43
2019-05-05T17:36:53.709Z,14.80
2019-05-05T17:39:23.793Z,9.73
2019-05-05T17:42:14.677Z,16.32
2019-05-05T17:44:53.669Z,12.43
2019-05-05T17:47:27.039Z,14.30
2019-05-05T17:50:17.783Z,18.32
2019-05-05T17:53:03.108Z,15.80
2019-05-05T17:55:40.023Z,12.33
2019-05-05T17:58:08.717Z,9.50
2019-05-05T18:00:47.101Z,16.77
2019-05-05T18:03:15.960Z,19.00
2019-05-05T18:06:09.743Z,18.87
2019-05-05T18:11:16.928Z,16.67
2019-05-05T18:13:49.625Z,13.98
2019-05-05T18:16:19.487Z,10.30
2019-05-05T18:18:48.189Z,13.08
2019-05-05T18:21:16.848Z,13.38
2019-05-05T18:23:45.518Z,10.38
2019-05-05T18:26:14.211Z,14.05
2019-05-05T18:28:44.804Z,22.02
2019-05-05T18:31:13.881Z,14.55
2019-05-05T18:33:42.816Z,11.08
2019-05-05T18:36:11.485Z,14.47
2019-05-05T18:38:40.176Z,14.23
2019-05-05T18:41:20.368Z,18.00
2019-05-05T18:43:55.236Z,13.83
2019-05-05T18:46:24.449Z,13.45
2019-05-05T18:48:54.501Z,21.35
2019-05-05T18:51:24.137Z,12.43
2019-05-05T18:53:54.983Z,15.48
2019-05-05T18:56:23.793Z,21.97
2019-05-05T18:58:54.250Z,17.87
2019-05-05T19:01:34.041Z,16.40
2019-05-05T19:04:34.747Z,13.05
2019-05-05T19:07:14.503Z,14.10
2019-05-05T19:09:51.824Z,11.40
2019-05-05T19:12:13.897Z,16.35
2019-05-05T19:14:44.224Z,17.92
2019-05-05T19:17:14.182Z,14.13
2019-05-05T19:19:46.958Z,12.75
2019-05-05T19:22:15.825Z,14.28
2019-05-05T19:24:44.487Z,20.37
2019-05-05T19:27:14.170Z,12.90
2019-05-05T19:29:45.981Z,14.18
2019-05-05T19:32:13.458Z,11.45
2019-05-05T19:34:43.900Z,10.98
2019-05-05T19:37:13.967Z,17.32
2019-05-05T19:39:42.817Z,12.10
2019-05-05T19:42:11.472Z,19.98
2019-05-05T19:44:40.134Z,16.17
2019-05-05T19:47:17.978Z,16.65
2019-05-05T19:49:58.916Z,14.30
2019-05-05T19:52:27.591Z,10.78
2019-05-05T19:54:56.281Z,13.98
2019-05-05T19:57:24.946Z,9.00
2019-05-05T19:59:54.273Z,20.75
2019-05-05T20:02:23.666Z,13.53
2019-05-05T20:04:53.665Z,13.83
2019-05-05T20:07:24.666Z,12.00
2019-05-05T20:09:54.337Z,18.23
2019-05-05T20:12:23.134Z,19.73
2019-05-05T20:14:51.787Z,16.17
2019-05-05T20:17:39.515Z,22.60
2019-05-05T20:20:09.210Z,13.88
2019-05-05T20:22:37.875Z,19.07
2019-05-05T20:25:07.931Z,16.00
2019-05-05T20:27:36.590Z,21.62
2019-05-05T20:30:06.569Z,16.15
2019-05-05T20:32:44.463Z,15.55
2019-05-05T20:35:24.064Z,23.60
2019-05-05T20:37:57.803Z,19.07
2019-05-05T20:40:29.787Z,15.93
2019-05-05T20:42:58.449Z,21.55
2019-05-05T20:45:29.325Z,22.55
2019-05-05T20:47:58.363Z,21.15
2019-05-05T20:50:27.033Z,20.72
2019-05-05T20:52:55.719Z,17.80
2019-05-05T20:55:25.886Z,21.17
2019-05-05T20:57:54.816Z,21.55
2019-05-05T21:00:24.695Z,21.02
2019-05-05T21:02:53.883Z,22.75
2019-05-05T21:05:24.160Z,19.90
2019-05-05T21:07:52.970Z,26.57
2019-05-05T21:10:23.987Z,24.07
2019-05-05T21:12:54.230Z,22.52
2019-05-05T21:15:24.487Z,24.70
2019-05-05T21:17:54.097Z,40.35
2019-05-05T21:20:24.122Z,28.42
2019-05-05T21:22:58.366Z,24.07
2019-05-05T21:25:35.288Z,22.20
2019-05-05T21:28:04.091Z,20.02
2019-05-05T21:30:33.688Z,33.98
2019-05-05T21:33:04.471Z,28.83
2019-05-05T21:35:34.912Z,20.00
2019-05-05T21:38:04.719Z,19.50
2019-05-05T21:40:34.642Z,28.20
2019-05-05T21:43:04.980Z,21.73
2019-05-05T21:45:34.665Z,16.52
2019-05-05T21:48:04.314Z,20.43
2019-05-05T21:50:38.564Z,11.73
2019-05-05T21:53:24.505Z,13.78
2019-05-05T21:56:27.182Z,13.83
2019-05-05T21:58:56.924Z,14.47
2019-05-05T22:01:27.877Z,15.30
2019-05-05T22:03:56.990Z,20.88
2019-05-05T22:06:25.792Z,15.75
2019-05-05T22:08:54.448Z,13.40
2019-05-05T22:11:24.275Z,18.52
2019-05-05T22:13:54.051Z,16.65
2019-05-05T22:16:22.947Z,14.00
2019-05-05T22:18:53.968Z,20.65
2019-05-05T22:21:28.457Z,18.12
2019-05-05T22:24:16.778Z,9.85
2019-05-05T22:26:45.964Z,15.85
2019-05-05T22:29:16.923Z,15.15
2019-05-05T22:31:45.333Z,16.65
2019-05-05T22:34:14.711Z,18.77
2019-05-05T22:36:44.883Z,17.55
2019-05-05T22:39:16.520Z,14.35
2019-05-05T22:41:44.679Z,13.65
2019-05-05T22:44:14.005Z,15.13
2019-05-05T22:46:43.005Z,12.03
2019-05-05T22:49:11.829Z,9.70
2019-05-05T22:51:40.577Z,13.53
2019-05-05T22:54:09.605Z,12.88
2019-05-05T22:56:38.365Z,16.07
2019-05-05T22:59:07.417Z,16.40
2019-05-05T23:01:36.082Z,19.55
2019-05-05T23:04:19.548Z,10.13
2019-05-05T23:09:20.102Z,11.93
2019-05-05T23:11:48.793Z,14.68
2019-05-05T23:14:29.793Z,15.32
2019-05-05T23:17:08.687Z,15.78
2019-05-05T23:19:44.486Z,12.13
2019-05-05T23:22:24.059Z,8.18
2019-05-05T23:24:57.936Z,12.75
2019-05-05T23:27:46.845Z,11.12
2019-05-05T23:30:16.126Z,13.62
2019-05-05T23:32:45.031Z,19.95
2019-05-05T23:35:14.316Z,13.43
2019-05-05T23:37:44.849Z,12.43
2019-05-05T23:40:20.673Z,15.15
2019-05-05T23:42:49.401Z,12.98
2019-05-05T23:45:18.460Z,9.28
2019-05-05T23:47:47.321Z,12.07
2019-05-05T23:50:16.128Z,15.50
2019-05-05T23:52:44.838Z,13.18
2019-05-05T23:55:14.325Z,16.85
2019-05-05T23:57:43.727Z,14.83
